Cleveland, Georgia
Current Conditions -  °F | °C
As of 2:19 AM on Sunday 23 Nov 2014 (Local Time) from KGVL Reporting Station
Overcast Overcast  
Wind Chill: 41°   Ceiling: 1400
Heat Index: 46°   Visibility: 10mi
Dew Point: 33°   Wind: 10mph
Humidity: 61%   Direction: 70°ENE
Pressure: 30.2"   Gusts: NA
Location:  34.6°N, 83.76°W
Report Text: KGVL 230719Z AUTO 07009KT 10SM OVC014 08/01 A3020 RMK AO2 T00780006
Loading
Personal Weather Stations






























Interactive Weather Map New forecast layout! Learn more

10-Day Weather Forecast

Advertisements
Track Severe Weather on mobile